sensor_id;sensor_type;location;lat;lon;timestamp;P1;durP1;ratioP1;P2;durP2;ratioP2
61356;SDS011;47227;46.752;23.576;2023-01-28T00:02:02;16.10;;;11.60;;
61356;SDS011;47227;46.752;23.576;2023-01-28T00:04:30;20.10;;;13.00;;
61356;SDS011;47227;46.752;23.576;2023-01-28T00:06:58;17.40;;;12.30;;
61356;SDS011;47227;46.752;23.576;2023-01-28T00:09:26;19.90;;;12.90;;
61356;SDS011;47227;46.752;23.576;2023-01-28T00:11:54;19.00;;;13.40;;
61356;SDS011;47227;46.752;23.576;2023-01-28T00:14:22;20.50;;;14.10;;
61356;SDS011;47227;46.752;23.576;2023-01-28T00:16:50;20.90;;;14.00;;
61356;SDS011;47227;46.752;23.576;2023-01-28T00:19:17;18.00;;;12.70;;
61356;SDS011;47227;46.752;23.576;2023-01-28T00:21:45;20.20;;;13.60;;
61356;SDS011;47227;46.752;23.576;2023-01-28T00:24:13;21.10;;;14.60;;
61356;SDS011;47227;46.752;23.576;2023-01-28T00:26:41;21.80;;;14.30;;
61356;SDS011;47227;46.752;23.576;2023-01-28T00:29:10;19.80;;;13.40;;
61356;SDS011;47227;46.752;23.576;2023-01-28T00:31:58;22.80;;;13.00;;
61356;SDS011;47227;46.752;23.576;2023-01-28T00:34:29;18.40;;;13.00;;
61356;SDS011;47227;46.752;23.576;2023-01-28T00:36:58;16.20;;;11.80;;
61356;SDS011;47227;46.752;23.576;2023-01-28T00:39:48;16.70;;;11.10;;
61356;SDS011;47227;46.752;23.576;2023-01-28T00:42:24;18.80;;;11.50;;
61356;SDS011;47227;46.752;23.576;2023-01-28T00:45:13;16.60;;;11.10;;
61356;SDS011;47227;46.752;23.576;2023-01-28T00:47:48;15.70;;;11.50;;
61356;SDS011;47227;46.752;23.576;2023-01-28T00:50:39;16.20;;;11.10;;
61356;SDS011;47227;46.752;23.576;2023-01-28T00:53:28;18.20;;;11.70;;
61356;SDS011;47227;46.752;23.576;2023-01-28T00:56:22;18.50;;;12.30;;
61356;SDS011;47227;46.752;23.576;2023-01-28T00:59:11;14.80;;;11.10;;
61356;SDS011;47227;46.752;23.576;2023-01-28T01:01:41;14.90;;;10.90;;
61356;SDS011;47227;46.752;23.576;2023-01-28T01:04:15;15.40;;;10.70;;
61356;SDS011;47227;46.752;23.576;2023-01-28T01:07:03;18.90;;;12.00;;
61356;SDS011;47227;46.752;23.576;2023-01-28T01:09:31;11.60;;;9.60;;
61356;SDS011;47227;46.752;23.576;2023-01-28T01:12:03;13.30;;;10.30;;
61356;SDS011;47227;46.752;23.576;2023-01-28T01:14:35;13.80;;;10.70;;
61356;SDS011;47227;46.752;23.576;2023-01-28T01:17:23;12.40;;;10.40;;
61356;SDS011;47227;46.752;23.576;2023-01-28T01:19:52;14.50;;;10.50;;
61356;SDS011;47227;46.752;23.576;2023-01-28T01:22:23;13.80;;;10.50;;
61356;SDS011;47227;46.752;23.576;2023-01-28T01:24:53;12.20;;;9.90;;
61356;SDS011;47227;46.752;23.576;2023-01-28T01:27:30;12.70;;;10.30;;
61356;SDS011;47227;46.752;23.576;2023-01-28T01:30:02;13.00;;;9.40;;
61356;SDS011;47227;46.752;23.576;2023-01-28T01:32:31;12.70;;;10.20;;
61356;SDS011;47227;46.752;23.576;2023-01-28T01:35:01;13.40;;;10.20;;
61356;SDS011;47227;46.752;23.576;2023-01-28T01:37:42;15.00;;;10.40;;
61356;SDS011;47227;46.752;23.576;2023-01-28T01:40:11;13.70;;;10.40;;
61356;SDS011;47227;46.752;23.576;2023-01-28T01:42:40;14.80;;;11.60;;
61356;SDS011;47227;46.752;23.576;2023-01-28T01:45:12;15.00;;;11.80;;
61356;SDS011;47227;46.752;23.576;2023-01-28T01:47:53;16.50;;;12.40;;
61356;SDS011;47227;46.752;23.576;2023-01-28T01:50:38;17.70;;;13.10;;
61356;SDS011;47227;46.752;23.576;2023-01-28T01:53:15;18.90;;;13.80;;
61356;SDS011;47227;46.752;23.576;2023-01-28T01:55:59;18.50;;;13.30;;
61356;SDS011;47227;46.752;23.576;2023-01-28T01:58:32;23.60;;;14.70;;
61356;SDS011;47227;46.752;23.576;2023-01-28T02:01:10;21.80;;;14.50;;
61356;SDS011;47227;46.752;23.576;2023-01-28T02:03:46;19.20;;;13.50;;
61356;SDS011;47227;46.752;23.576;2023-01-28T02:06:30;16.40;;;11.50;;
61356;SDS011;47227;46.752;23.576;2023-01-28T02:11:54;9.80;;;6.60;;
61356;SDS011;47227;46.752;23.576;2023-01-28T02:14:27;7.00;;;6.30;;
61356;SDS011;47227;46.752;23.576;2023-01-28T02:16:59;7.50;;;5.80;;
61356;SDS011;47227;46.752;23.576;2023-01-28T02:19:37;6.20;;;5.60;;
61356;SDS011;47227;46.752;23.576;2023-01-28T02:22:17;6.10;;;5.20;;
61356;SDS011;47227;46.752;23.576;2023-01-28T02:28:17;6.50;;;5.00;;
61356;SDS011;47227;46.752;23.576;2023-01-28T02:31:10;5.80;;;5.10;;
61356;SDS011;47227;46.752;23.576;2023-01-28T02:33:57;8.20;;;5.70;;
61356;SDS011;47227;46.752;23.576;2023-01-28T02:36:42;5.90;;;5.20;;
61356;SDS011;47227;46.752;23.576;2023-01-28T02:39:21;8.80;;;5.60;;
61356;SDS011;47227;46.752;23.576;2023-01-28T02:42:00;6.50;;;5.70;;
61356;SDS011;47227;46.752;23.576;2023-01-28T02:44:33;7.00;;;5.60;;
61356;SDS011;47227;46.752;23.576;2023-01-28T02:47:04;7.20;;;5.90;;
61356;SDS011;47227;46.752;23.576;2023-01-28T02:49:53;6.10;;;5.30;;
61356;SDS011;47227;46.752;23.576;2023-01-28T02:52:31;7.80;;;6.50;;
61356;SDS011;47227;46.752;23.576;2023-01-28T02:55:49;7.60;;;6.10;;
61356;SDS011;47227;46.752;23.576;2023-01-28T02:58:26;6.30;;;5.50;;
61356;SDS011;47227;46.752;23.576;2023-01-28T03:01:24;7.00;;;6.30;;
61356;SDS011;47227;46.752;23.576;2023-01-28T03:04:07;6.50;;;5.60;;
61356;SDS011;47227;46.752;23.576;2023-01-28T03:07:12;8.40;;;6.20;;
61356;SDS011;47227;46.752;23.576;2023-01-28T03:09:45;8.40;;;6.50;;
61356;SDS011;47227;46.752;23.576;2023-01-28T03:12:27;6.90;;;5.50;;
61356;SDS011;47227;46.752;23.576;2023-01-28T03:15:40;8.60;;;5.70;;
61356;SDS011;47227;46.752;23.576;2023-01-28T03:18:37;7.50;;;5.30;;
61356;SDS011;47227;46.752;23.576;2023-01-28T03:21:28;7.00;;;5.80;;
61356;SDS011;47227;46.752;23.576;2023-01-28T03:24:20;8.30;;;6.30;;
61356;SDS011;47227;46.752;23.576;2023-01-28T03:28:00;7.10;;;5.70;;
61356;SDS011;47227;46.752;23.576;2023-01-28T03:31:26;8.10;;;6.00;;
61356;SDS011;47227;46.752;23.576;2023-01-28T03:35:01;6.80;;;5.70;;
61356;SDS011;47227;46.752;23.576;2023-01-28T03:38:40;6.90;;;5.20;;
61356;SDS011;47227;46.752;23.576;2023-01-28T03:42:15;8.50;;;5.70;;
61356;SDS011;47227;46.752;23.576;2023-01-28T03:46:18;7.40;;;5.00;;
61356;SDS011;47227;46.752;23.576;2023-01-28T03:49:57;7.80;;;5.90;;
61356;SDS011;47227;46.752;23.576;2023-01-28T03:54:02;8.80;;;5.90;;
61356;SDS011;47227;46.752;23.576;2023-01-28T03:57:42;7.30;;;5.50;;
61356;SDS011;47227;46.752;23.576;2023-01-28T04:00:35;9.60;;;6.80;;
61356;SDS011;47227;46.752;23.576;2023-01-28T04:03:24;9.70;;;7.20;;
61356;SDS011;47227;46.752;23.576;2023-01-28T04:06:04;10.80;;;7.10;;
61356;SDS011;47227;46.752;23.576;2023-01-28T04:08:54;13.20;;;7.30;;
61356;SDS011;47227;46.752;23.576;2023-01-28T04:11:55;12.10;;;7.30;;
61356;SDS011;47227;46.752;23.576;2023-01-28T04:14:32;8.50;;;6.80;;
61356;SDS011;47227;46.752;23.576;2023-01-28T04:17:14;9.40;;;6.70;;
61356;SDS011;47227;46.752;23.576;2023-01-28T04:19:45;9.40;;;7.40;;
61356;SDS011;47227;46.752;23.576;2023-01-28T04:22:37;10.10;;;7.80;;
61356;SDS011;47227;46.752;23.576;2023-01-28T04:25:14;10.80;;;8.30;;
61356;SDS011;47227;46.752;23.576;2023-01-28T04:28:09;11.90;;;8.90;;
61356;SDS011;47227;46.752;23.576;2023-01-28T04:31:00;15.00;;;9.50;;
61356;SDS011;47227;46.752;23.576;2023-01-28T04:33:42;12.90;;;8.90;;
61356;SDS011;47227;46.752;23.576;2023-01-28T04:36:23;9.50;;;7.20;;
61356;SDS011;47227;46.752;23.576;2023-01-28T04:39:05;9.90;;;7.60;;
61356;SDS011;47227;46.752;23.576;2023-01-28T04:42:00;8.90;;;7.20;;
61356;SDS011;47227;46.752;23.576;2023-01-28T04:44:44;10.30;;;7.50;;
61356;SDS011;47227;46.752;23.576;2023-01-28T04:47:26;12.90;;;9.00;;
61356;SDS011;47227;46.752;23.576;2023-01-28T04:50:04;15.30;;;9.90;;
61356;SDS011;47227;46.752;23.576;2023-01-28T04:52:42;13.70;;;9.20;;
61356;SDS011;47227;46.752;23.576;2023-01-28T04:55:35;15.50;;;10.10;;
61356;SDS011;47227;46.752;23.576;2023-01-28T04:58:05;14.90;;;10.00;;
61356;SDS011;47227;46.752;23.576;2023-01-28T05:00:34;18.60;;;11.40;;
61356;SDS011;47227;46.752;23.576;2023-01-28T05:03:24;18.90;;;11.10;;
61356;SDS011;47227;46.752;23.576;2023-01-28T05:05:54;16.50;;;11.60;;
61356;SDS011;47227;46.752;23.576;2023-01-28T05:08:35;17.30;;;10.50;;
61356;SDS011;47227;46.752;23.576;2023-01-28T05:11:13;13.00;;;9.00;;
61356;SDS011;47227;46.752;23.576;2023-01-28T05:13:45;10.50;;;8.10;;
61356;SDS011;47227;46.752;23.576;2023-01-28T05:16:14;11.60;;;8.30;;
61356;SDS011;47227;46.752;23.576;2023-01-28T05:18:43;8.70;;;7.10;;
61356;SDS011;47227;46.752;23.576;2023-01-28T05:21:19;9.00;;;6.70;;
61356;SDS011;47227;46.752;23.576;2023-01-28T05:23:54;6.90;;;5.90;;
61356;SDS011;47227;46.752;23.576;2023-01-28T05:26:23;9.00;;;6.80;;
61356;SDS011;47227;46.752;23.576;2023-01-28T05:29:35;7.10;;;5.60;;
61356;SDS011;47227;46.752;23.576;2023-01-28T05:33:03;5.40;;;4.80;;
61356;SDS011;47227;46.752;23.576;2023-01-28T05:37:00;6.50;;;4.90;;
61356;SDS011;47227;46.752;23.576;2023-01-28T05:39:32;8.00;;;6.50;;
61356;SDS011;47227;46.752;23.576;2023-01-28T05:42:01;12.30;;;8.40;;
61356;SDS011;47227;46.752;23.576;2023-01-28T05:44:40;12.00;;;8.80;;
61356;SDS011;47227;46.752;23.576;2023-01-28T05:47:17;14.40;;;10.40;;
61356;SDS011;47227;46.752;23.576;2023-01-28T05:52:36;13.60;;;8.80;;
61356;SDS011;47227;46.752;23.576;2023-01-28T05:55:09;8.60;;;6.20;;
61356;SDS011;47227;46.752;23.576;2023-01-28T05:57:38;8.50;;;6.90;;
61356;SDS011;47227;46.752;23.576;2023-01-28T06:00:08;7.90;;;6.90;;
61356;SDS011;47227;46.752;23.576;2023-01-28T06:02:42;10.00;;;7.20;;
61356;SDS011;47227;46.752;23.576;2023-01-28T06:05:22;11.30;;;8.60;;
61356;SDS011;47227;46.752;23.576;2023-01-28T06:07:56;12.60;;;9.10;;
61356;SDS011;47227;46.752;23.576;2023-01-28T06:10:33;11.00;;;8.80;;
61356;SDS011;47227;46.752;23.576;2023-01-28T06:13:02;12.90;;;8.80;;
61356;SDS011;47227;46.752;23.576;2023-01-28T06:15:47;7.60;;;6.60;;
61356;SDS011;47227;46.752;23.576;2023-01-28T06:18:34;8.10;;;7.10;;
61356;SDS011;47227;46.752;23.576;2023-01-28T06:21:03;8.80;;;7.50;;
61356;SDS011;47227;46.752;23.576;2023-01-28T06:23:31;9.90;;;7.80;;
61356;SDS011;47227;46.752;23.576;2023-01-28T06:26:01;8.80;;;7.10;;
61356;SDS011;47227;46.752;23.576;2023-01-28T06:28:31;9.50;;;7.40;;
61356;SDS011;47227;46.752;23.576;2023-01-28T06:31:00;13.50;;;8.90;;
61356;SDS011;47227;46.752;23.576;2023-01-28T06:33:29;13.30;;;9.30;;
61356;SDS011;47227;46.752;23.576;2023-01-28T06:36:02;13.00;;;9.60;;
61356;SDS011;47227;46.752;23.576;2023-01-28T06:38:35;12.50;;;9.50;;
61356;SDS011;47227;46.752;23.576;2023-01-28T06:41:03;14.90;;;10.00;;
61356;SDS011;47227;46.752;23.576;2023-01-28T06:43:35;12.70;;;9.10;;
61356;SDS011;47227;46.752;23.576;2023-01-28T06:46:05;13.10;;;9.10;;
61356;SDS011;47227;46.752;23.576;2023-01-28T06:48:38;13.20;;;9.80;;
61356;SDS011;47227;46.752;23.576;2023-01-28T06:51:08;13.80;;;9.60;;
61356;SDS011;47227;46.752;23.576;2023-01-28T06:53:38;12.80;;;9.50;;
61356;SDS011;47227;46.752;23.576;2023-01-28T06:56:07;10.50;;;8.80;;
61356;SDS011;47227;46.752;23.576;2023-01-28T06:58:38;11.10;;;8.60;;
61356;SDS011;47227;46.752;23.576;2023-01-28T07:01:14;11.40;;;8.40;;
61356;SDS011;47227;46.752;23.576;2023-01-28T07:03:49;9.30;;;8.30;;
61356;SDS011;47227;46.752;23.576;2023-01-28T07:06:18;9.00;;;7.70;;
61356;SDS011;47227;46.752;23.576;2023-01-28T07:08:46;14.90;;;9.50;;
61356;SDS011;47227;46.752;23.576;2023-01-28T07:11:29;16.20;;;10.30;;
61356;SDS011;47227;46.752;23.576;2023-01-28T07:14:05;15.10;;;10.50;;
61356;SDS011;47227;46.752;23.576;2023-01-28T07:16:38;15.60;;;11.10;;
61356;SDS011;47227;46.752;23.576;2023-01-28T07:19:20;15.30;;;11.50;;
61356;SDS011;47227;46.752;23.576;2023-01-28T07:21:52;17.30;;;11.80;;
61356;SDS011;47227;46.752;23.576;2023-01-28T07:24:24;16.80;;;12.30;;
61356;SDS011;47227;46.752;23.576;2023-01-28T07:26:53;14.20;;;10.90;;
61356;SDS011;47227;46.752;23.576;2023-01-28T07:29:21;15.30;;;11.10;;
61356;SDS011;47227;46.752;23.576;2023-01-28T07:31:50;16.80;;;11.60;;
61356;SDS011;47227;46.752;23.576;2023-01-28T07:34:19;18.80;;;11.90;;
61356;SDS011;47227;46.752;23.576;2023-01-28T07:36:49;18.20;;;13.30;;
61356;SDS011;47227;46.752;23.576;2023-01-28T07:39:17;22.90;;;15.20;;
61356;SDS011;47227;46.752;23.576;2023-01-28T07:41:52;20.10;;;13.70;;
61356;SDS011;47227;46.752;23.576;2023-01-28T07:44:41;15.90;;;11.20;;
61356;SDS011;47227;46.752;23.576;2023-01-28T07:47:11;17.90;;;11.20;;
61356;SDS011;47227;46.752;23.576;2023-01-28T07:49:41;15.10;;;9.30;;
61356;SDS011;47227;46.752;23.576;2023-01-28T07:52:15;12.80;;;9.00;;
61356;SDS011;47227;46.752;23.576;2023-01-28T07:54:56;15.50;;;10.50;;
61356;SDS011;47227;46.752;23.576;2023-01-28T07:57:26;13.80;;;10.70;;
61356;SDS011;47227;46.752;23.576;2023-01-28T07:59:57;16.40;;;10.60;;
61356;SDS011;47227;46.752;23.576;2023-01-28T08:02:40;14.80;;;10.50;;
61356;SDS011;47227;46.752;23.576;2023-01-28T08:05:53;11.20;;;8.20;;
61356;SDS011;47227;46.752;23.576;2023-01-28T08:08:36;16.60;;;8.90;;
61356;SDS011;47227;46.752;23.576;2023-01-28T08:11:51;14.00;;;8.60;;
61356;SDS011;47227;46.752;23.576;2023-01-28T08:14:49;13.40;;;8.00;;
61356;SDS011;47227;46.752;23.576;2023-01-28T08:17:21;11.60;;;8.20;;
61356;SDS011;47227;46.752;23.576;2023-01-28T08:19:51;12.40;;;8.20;;
61356;SDS011;47227;46.752;23.576;2023-01-28T08:22:27;11.60;;;7.80;;
61356;SDS011;47227;46.752;23.576;2023-01-28T08:25:00;10.90;;;7.40;;
61356;SDS011;47227;46.752;23.576;2023-01-28T08:27:31;10.10;;;8.50;;
61356;SDS011;47227;46.752;23.576;2023-01-28T08:30:37;14.10;;;8.80;;
61356;SDS011;47227;46.752;23.576;2023-01-28T08:33:19;12.10;;;8.90;;
61356;SDS011;47227;46.752;23.576;2023-01-28T08:35:48;11.80;;;8.50;;
61356;SDS011;47227;46.752;23.576;2023-01-28T08:38:37;13.50;;;8.90;;
61356;SDS011;47227;46.752;23.576;2023-01-28T08:41:08;13.50;;;9.40;;
61356;SDS011;47227;46.752;23.576;2023-01-28T08:43:37;16.60;;;11.90;;
61356;SDS011;47227;46.752;23.576;2023-01-28T08:46:09;16.50;;;11.80;;
61356;SDS011;47227;46.752;23.576;2023-01-28T08:48:43;16.80;;;12.10;;
61356;SDS011;47227;46.752;23.576;2023-01-28T08:51:39;21.00;;;13.50;;
61356;SDS011;47227;46.752;23.576;2023-01-28T08:54:12;22.80;;;15.10;;
61356;SDS011;47227;46.752;23.576;2023-01-28T08:56:45;23.70;;;14.90;;
61356;SDS011;47227;46.752;23.576;2023-01-28T08:59:17;19.50;;;14.30;;
61356;SDS011;47227;46.752;23.576;2023-01-28T09:01:48;21.10;;;14.00;;
61356;SDS011;47227;46.752;23.576;2023-01-28T09:04:18;23.70;;;15.40;;
61356;SDS011;47227;46.752;23.576;2023-01-28T09:06:51;29.40;;;17.70;;
61356;SDS011;47227;46.752;23.576;2023-01-28T09:09:25;25.30;;;15.90;;
61356;SDS011;47227;46.752;23.576;2023-01-28T09:12:02;28.10;;;17.00;;
61356;SDS011;47227;46.752;23.576;2023-01-28T09:14:32;20.10;;;13.10;;
61356;SDS011;47227;46.752;23.576;2023-01-28T09:17:01;14.10;;;10.80;;
61356;SDS011;47227;46.752;23.576;2023-01-28T09:19:29;12.60;;;8.70;;
61356;SDS011;47227;46.752;23.576;2023-01-28T09:21:57;14.40;;;8.80;;
61356;SDS011;47227;46.752;23.576;2023-01-28T09:24:25;10.10;;;7.30;;
61356;SDS011;47227;46.752;23.576;2023-01-28T09:26:53;11.20;;;7.80;;
61356;SDS011;47227;46.752;23.576;2023-01-28T09:29:22;11.90;;;8.70;;
61356;SDS011;47227;46.752;23.576;2023-01-28T09:31:50;13.00;;;9.50;;
61356;SDS011;47227;46.752;23.576;2023-01-28T09:34:18;11.50;;;8.50;;
61356;SDS011;47227;46.752;23.576;2023-01-28T09:36:47;10.20;;;8.10;;
61356;SDS011;47227;46.752;23.576;2023-01-28T09:39:15;10.70;;;7.90;;
61356;SDS011;47227;46.752;23.576;2023-01-28T09:41:56;9.50;;;7.90;;
61356;SDS011;47227;46.752;23.576;2023-01-28T09:44:43;11.90;;;7.80;;
61356;SDS011;47227;46.752;23.576;2023-01-28T09:47:35;11.00;;;8.40;;
61356;SDS011;47227;46.752;23.576;2023-01-28T09:50:13;9.80;;;8.10;;
61356;SDS011;47227;46.752;23.576;2023-01-28T09:52:45;12.30;;;8.70;;
61356;SDS011;47227;46.752;23.576;2023-01-28T09:55:31;15.70;;;10.60;;
61356;SDS011;47227;46.752;23.576;2023-01-28T09:58:04;10.90;;;8.60;;
61356;SDS011;47227;46.752;23.576;2023-01-28T10:12:14;9.70;;;7.60;;
61356;SDS011;47227;46.752;23.576;2023-01-28T10:15:19;9.90;;;7.60;;
61356;SDS011;47227;46.752;23.576;2023-01-28T10:17:58;10.60;;;7.80;;
61356;SDS011;47227;46.752;23.576;2023-01-28T10:20:47;11.30;;;9.00;;
61356;SDS011;47227;46.752;23.576;2023-01-28T10:23:20;14.10;;;9.60;;
61356;SDS011;47227;46.752;23.576;2023-01-28T10:25:57;14.10;;;10.00;;
61356;SDS011;47227;46.752;23.576;2023-01-28T10:28:33;12.80;;;9.20;;
61356;SDS011;47227;46.752;23.576;2023-01-28T10:31:07;13.40;;;8.90;;
61356;SDS011;47227;46.752;23.576;2023-01-28T10:33:39;12.90;;;8.60;;
61356;SDS011;47227;46.752;23.576;2023-01-28T10:36:07;11.40;;;8.10;;
61356;SDS011;47227;46.752;23.576;2023-01-28T10:38:36;8.30;;;6.50;;
61356;SDS011;47227;46.752;23.576;2023-01-28T10:41:05;8.10;;;6.10;;
61356;SDS011;47227;46.752;23.576;2023-01-28T10:43:36;9.20;;;7.20;;
61356;SDS011;47227;46.752;23.576;2023-01-28T10:46:10;10.10;;;7.40;;
61356;SDS011;47227;46.752;23.576;2023-01-28T10:48:45;12.80;;;8.10;;
61356;SDS011;47227;46.752;23.576;2023-01-28T10:56:47;6.20;;;5.40;;
61356;SDS011;47227;46.752;23.576;2023-01-28T10:59:18;7.30;;;6.10;;
61356;SDS011;47227;46.752;23.576;2023-01-28T11:01:50;7.10;;;5.90;;
61356;SDS011;47227;46.752;23.576;2023-01-28T11:04:29;11.50;;;6.40;;
61356;SDS011;47227;46.752;23.576;2023-01-28T11:07:00;8.80;;;6.30;;
61356;SDS011;47227;46.752;23.576;2023-01-28T11:09:32;7.50;;;5.70;;
61356;SDS011;47227;46.752;23.576;2023-01-28T11:12:19;9.00;;;6.20;;
61356;SDS011;47227;46.752;23.576;2023-01-28T11:15:44;8.40;;;6.30;;
61356;SDS011;47227;46.752;23.576;2023-01-28T11:19:52;8.70;;;6.30;;
61356;SDS011;47227;46.752;23.576;2023-01-28T11:30:03;7.70;;;5.80;;
61356;SDS011;47227;46.752;23.576;2023-01-28T11:32:34;8.10;;;5.60;;
61356;SDS011;47227;46.752;23.576;2023-01-28T11:35:04;7.30;;;6.50;;
61356;SDS011;47227;46.752;23.576;2023-01-28T11:37:32;9.00;;;6.50;;
61356;SDS011;47227;46.752;23.576;2023-01-28T11:40:03;9.80;;;7.50;;
61356;SDS011;47227;46.752;23.576;2023-01-28T11:42:49;10.30;;;7.30;;
61356;SDS011;47227;46.752;23.576;2023-01-28T11:45:39;8.40;;;6.60;;
61356;SDS011;47227;46.752;23.576;2023-01-28T11:51:45;8.50;;;6.60;;
61356;SDS011;47227;46.752;23.576;2023-01-28T11:54:28;10.60;;;7.30;;
61356;SDS011;47227;46.752;23.576;2023-01-28T11:57:13;8.20;;;6.60;;
61356;SDS011;47227;46.752;23.576;2023-01-28T11:59:58;7.80;;;6.50;;
61356;SDS011;47227;46.752;23.576;2023-01-28T12:03:04;8.10;;;6.00;;
61356;SDS011;47227;46.752;23.576;2023-01-28T12:05:51;10.10;;;7.50;;
61356;SDS011;47227;46.752;23.576;2023-01-28T12:08:33;9.20;;;7.30;;
61356;SDS011;47227;46.752;23.576;2023-01-28T12:11:23;9.60;;;7.00;;
61356;SDS011;47227;46.752;23.576;2023-01-28T12:14:44;7.10;;;6.30;;
61356;SDS011;47227;46.752;23.576;2023-01-28T12:17:29;9.40;;;7.10;;
61356;SDS011;47227;46.752;23.576;2023-01-28T12:20:17;7.80;;;6.10;;
61356;SDS011;47227;46.752;23.576;2023-01-28T12:23:34;7.20;;;6.40;;
61356;SDS011;47227;46.752;23.576;2023-01-28T12:26:07;9.00;;;6.80;;
61356;SDS011;47227;46.752;23.576;2023-01-28T12:31:30;11.40;;;8.10;;
61356;SDS011;47227;46.752;23.576;2023-01-28T12:34:52;11.30;;;8.40;;
61356;SDS011;47227;46.752;23.576;2023-01-28T12:38:08;10.80;;;8.70;;
61356;SDS011;47227;46.752;23.576;2023-01-28T12:41:01;11.60;;;8.90;;
61356;SDS011;47227;46.752;23.576;2023-01-28T12:44:00;13.70;;;9.70;;
61356;SDS011;47227;46.752;23.576;2023-01-28T12:46:41;15.00;;;11.00;;
61356;SDS011;47227;46.752;23.576;2023-01-28T12:52:14;11.90;;;8.70;;
61356;SDS011;47227;46.752;23.576;2023-01-28T12:54:52;12.00;;;8.80;;
61356;SDS011;47227;46.752;23.576;2023-01-28T12:57:52;11.90;;;8.70;;
61356;SDS011;47227;46.752;23.576;2023-01-28T13:00:29;9.30;;;7.80;;
61356;SDS011;47227;46.752;23.576;2023-01-28T13:03:28;12.80;;;8.40;;
61356;SDS011;47227;46.752;23.576;2023-01-28T13:06:04;13.60;;;8.20;;
61356;SDS011;47227;46.752;23.576;2023-01-28T13:08:37;11.50;;;8.20;;
61356;SDS011;47227;46.752;23.576;2023-01-28T13:11:47;10.80;;;7.20;;
61356;SDS011;47227;46.752;23.576;2023-01-28T13:14:18;9.10;;;7.40;;
61356;SDS011;47227;46.752;23.576;2023-01-28T13:16:51;10.20;;;7.50;;
61356;SDS011;47227;46.752;23.576;2023-01-28T13:19:24;9.20;;;7.20;;
61356;SDS011;47227;46.752;23.576;2023-01-28T13:27:52;10.30;;;7.50;;
61356;SDS011;47227;46.752;23.576;2023-01-28T13:30:27;10.30;;;7.60;;
61356;SDS011;47227;46.752;23.576;2023-01-28T13:33:00;10.50;;;8.00;;
61356;SDS011;47227;46.752;23.576;2023-01-28T13:35:32;9.70;;;7.50;;
61356;SDS011;47227;46.752;23.576;2023-01-28T13:38:07;12.20;;;8.30;;
61356;SDS011;47227;46.752;23.576;2023-01-28T13:43:35;15.30;;;9.10;;
61356;SDS011;47227;46.752;23.576;2023-01-28T13:46:08;16.00;;;10.20;;
61356;SDS011;47227;46.752;23.576;2023-01-28T13:48:41;13.60;;;9.00;;
61356;SDS011;47227;46.752;23.576;2023-01-28T13:51:19;12.90;;;9.10;;
61356;SDS011;47227;46.752;23.576;2023-01-28T13:54:06;12.40;;;9.20;;
61356;SDS011;47227;46.752;23.576;2023-01-28T13:59:38;12.80;;;9.10;;
61356;SDS011;47227;46.752;23.576;2023-01-28T14:02:29;12.20;;;9.00;;
61356;SDS011;47227;46.752;23.576;2023-01-28T14:17:19;20.60;;;13.60;;
61356;SDS011;47227;46.752;23.576;2023-01-28T14:19:56;37.80;;;19.10;;
61356;SDS011;47227;46.752;23.576;2023-01-28T14:22:29;23.80;;;14.50;;
61356;SDS011;47227;46.752;23.576;2023-01-28T14:24:58;18.90;;;11.60;;
61356;SDS011;47227;46.752;23.576;2023-01-28T14:27:36;13.50;;;9.90;;
61356;SDS011;47227;46.752;23.576;2023-01-28T14:32:49;28.20;;;15.80;;
61356;SDS011;47227;46.752;23.576;2023-01-28T14:35:27;14.40;;;9.50;;
61356;SDS011;47227;46.752;23.576;2023-01-28T14:38:06;13.30;;;8.70;;
61356;SDS011;47227;46.752;23.576;2023-01-28T14:40:41;17.00;;;11.40;;
61356;SDS011;47227;46.752;23.576;2023-01-28T14:43:14;14.10;;;10.40;;
61356;SDS011;47227;46.752;23.576;2023-01-28T14:45:54;11.40;;;8.80;;
61356;SDS011;47227;46.752;23.576;2023-01-28T14:48:43;12.60;;;9.80;;
61356;SDS011;47227;46.752;23.576;2023-01-28T14:51:45;12.90;;;9.20;;
61356;SDS011;47227;46.752;23.576;2023-01-28T14:54:22;8.90;;;7.30;;
61356;SDS011;47227;46.752;23.576;2023-01-28T14:57:09;10.70;;;7.80;;
61356;SDS011;47227;46.752;23.576;2023-01-28T15:02:21;14.50;;;9.10;;
61356;SDS011;47227;46.752;23.576;2023-01-28T15:04:52;15.40;;;10.00;;
61356;SDS011;47227;46.752;23.576;2023-01-28T15:07:32;13.60;;;8.40;;
61356;SDS011;47227;46.752;23.576;2023-01-28T15:10:02;11.70;;;8.10;;
61356;SDS011;47227;46.752;23.576;2023-01-28T15:12:36;13.90;;;10.20;;
61356;SDS011;47227;46.752;23.576;2023-01-28T15:15:18;13.40;;;8.20;;
61356;SDS011;47227;46.752;23.576;2023-01-28T15:17:56;13.90;;;9.40;;
61356;SDS011;47227;46.752;23.576;2023-01-28T15:20:29;13.90;;;9.30;;
61356;SDS011;47227;46.752;23.576;2023-01-28T15:22:59;13.70;;;9.10;;
61356;SDS011;47227;46.752;23.576;2023-01-28T15:25:28;16.80;;;11.50;;
61356;SDS011;47227;46.752;23.576;2023-01-28T15:27:58;15.40;;;11.30;;
61356;SDS011;47227;46.752;23.576;2023-01-28T15:30:29;15.10;;;11.10;;
61356;SDS011;47227;46.752;23.576;2023-01-28T15:33:27;16.80;;;10.70;;
61356;SDS011;47227;46.752;23.576;2023-01-28T15:35:56;17.40;;;11.10;;
61356;SDS011;47227;46.752;23.576;2023-01-28T15:38:26;19.10;;;10.50;;
61356;SDS011;47227;46.752;23.576;2023-01-28T15:40:57;12.90;;;10.20;;
61356;SDS011;47227;46.752;23.576;2023-01-28T15:43:31;14.40;;;10.80;;
61356;SDS011;47227;46.752;23.576;2023-01-28T15:46:10;14.30;;;9.20;;
61356;SDS011;47227;46.752;23.576;2023-01-28T15:48:52;18.50;;;11.40;;
61356;SDS011;47227;46.752;23.576;2023-01-28T15:51:32;19.10;;;13.10;;
61356;SDS011;47227;46.752;23.576;2023-01-28T15:54:03;17.70;;;12.80;;
61356;SDS011;47227;46.752;23.576;2023-01-28T15:56:33;24.60;;;14.20;;
61356;SDS011;47227;46.752;23.576;2023-01-28T15:59:21;19.30;;;13.80;;
61356;SDS011;47227;46.752;23.576;2023-01-28T16:04:56;22.00;;;15.20;;
61356;SDS011;47227;46.752;23.576;2023-01-28T16:07:26;22.50;;;15.50;;
61356;SDS011;47227;46.752;23.576;2023-01-28T16:09:58;31.80;;;19.80;;
61356;SDS011;47227;46.752;23.576;2023-01-28T16:12:28;22.10;;;13.90;;
61356;SDS011;47227;46.752;23.576;2023-01-28T16:14:57;18.60;;;13.50;;
61356;SDS011;47227;46.752;23.576;2023-01-28T16:17:29;18.10;;;12.40;;
61356;SDS011;47227;46.752;23.576;2023-01-28T16:20:27;23.70;;;14.90;;
61356;SDS011;47227;46.752;23.576;2023-01-28T16:23:12;21.80;;;14.10;;
61356;SDS011;47227;46.752;23.576;2023-01-28T16:28:34;16.30;;;9.90;;
61356;SDS011;47227;46.752;23.576;2023-01-28T16:31:04;20.00;;;12.90;;
61356;SDS011;47227;46.752;23.576;2023-01-28T16:33:34;17.10;;;11.00;;
61356;SDS011;47227;46.752;23.576;2023-01-28T16:36:08;12.10;;;8.90;;
61356;SDS011;47227;46.752;23.576;2023-01-28T16:38:38;15.60;;;9.60;;
61356;SDS011;47227;46.752;23.576;2023-01-28T16:41:23;17.00;;;10.80;;
61356;SDS011;47227;46.752;23.576;2023-01-28T16:44:05;17.10;;;10.50;;
61356;SDS011;47227;46.752;23.576;2023-01-28T16:46:33;17.90;;;11.10;;
61356;SDS011;47227;46.752;23.576;2023-01-28T16:49:04;18.70;;;11.30;;
61356;SDS011;47227;46.752;23.576;2023-01-28T16:51:36;22.40;;;12.20;;
61356;SDS011;47227;46.752;23.576;2023-01-28T16:54:08;20.60;;;13.10;;
61356;SDS011;47227;46.752;23.576;2023-01-28T16:56:49;20.60;;;13.70;;